Time;durP1;ratioP1;P1;durP2;ratioP2;P2;SDS_P1;SDS_P2;PMS_P1;PMS_P2;Temp;Humidity;BMP_temperature;BMP_pressure;BME280_temperature;BME280_humidity;BME280_pressure;Samples;Min_cycle;Max_cycle;Signal;HPM_P1;HPM_P2
2022/08/01 00:01:40;;;;;;;16.73;15.15;;;17.70;93.20;;;;;;5071155;28;20048;-50
2022/08/01 00:04:06;;;;;;;17.90;15.93;;;17.70;93.20;;;;;;5089199;28;20035;-49
2022/08/01 00:06:31;;;;;;;17.50;15.70;;;17.70;93.20;;;;;;5089430;28;20310;-58
2022/08/01 00:08:57;;;;;;;18.27;16.02;;;17.70;93.20;;;;;;5071385;28;20318;-56
2022/08/01 00:11:23;;;;;;;17.35;15.32;;;17.70;93.20;;;;;;5089214;28;20024;-56
2022/08/01 00:13:48;;;;;;;12.80;11.60;;;17.70;93.20;;;;;;5089285;28;20031;-57
2022/08/01 00:16:15;;;;;;;12.57;10.68;;;17.60;93.30;;;;;;5089045;28;20028;-52
2022/08/01 00:18:44;;;;;;;11.57;8.95;;;17.60;93.40;;;;;;5071365;28;20483;-51
2022/08/01 00:21:10;;;;;;;10.68;9.25;;;17.60;93.40;;;;;;5088817;28;20114;-49
2022/08/01 00:23:36;;;;;;;13.88;9.57;;;17.60;93.40;;;;;;5089268;28;20422;-49
2022/08/01 00:26:02;;;;;;;17.65;10.18;;;17.60;93.50;;;;;;5088845;28;20028;-52
2022/08/01 00:28:27;;;;;;;11.52;8.43;;;17.50;93.50;;;;;;5089123;28;20028;-49
2022/08/01 00:30:53;;;;;;;12.68;10.15;;;17.50;93.50;;;;;;5088976;28;20137;-50
2022/08/01 00:33:19;;;;;;;11.43;10.18;;;17.50;93.50;;;;;;5089011;28;20075;-49
2022/08/01 00:35:44;;;;;;;13.38;10.98;;;17.40;93.50;;;;;;5088954;28;20040;-52
2022/08/01 00:38:11;;;;;;;14.43;11.95;;;17.40;93.50;;;;;;5088884;28;20020;-52
2022/08/01 00:40:36;;;;;;;15.82;13.20;;;17.40;93.50;;;;;;5089030;28;20107;-50
2022/08/01 00:43:02;;;;;;;18.13;14.10;;;17.40;93.50;;;;;;5051027;28;20128;-49
2022/08/01 00:45:28;;;;;;;15.40;13.50;;;17.40;93.50;;;;;;5071184;28;20039;-51
2022/08/01 00:47:54;;;;;;;16.60;13.32;;;17.40;93.50;;;;;;5072148;28;20021;-49
2022/08/01 00:50:19;;;;;;;16.58;13.05;;;17.40;93.50;;;;;;5072125;28;20031;-49
2022/08/01 00:52:45;;;;;;;15.60;12.07;;;17.40;93.50;;;;;;5071161;28;20028;-49
2022/08/01 00:55:12;;;;;;;14.15;10.93;;;17.40;93.40;;;;;;5072045;28;20082;-51
2022/08/01 00:57:39;;;;;;;16.13;11.50;;;17.40;93.40;;;;;;5070961;28;20024;-49
2022/08/01 01:00:06;;;;;;;11.52;10.15;;;17.40;93.40;;;;;;5072120;28;20025;-52
2022/08/01 01:02:36;;;;;;;13.98;9.82;;;17.40;93.40;;;;;;5071990;28;20368;-49
2022/08/01 01:05:02;;;;;;;11.10;8.27;;;17.40;93.30;;;;;;5071873;28;20032;-49
2022/08/01 01:07:49;;;;;;;10.25;7.57;;;17.30;93.30;;;;;;5071741;28;20373;-54
2022/08/01 01:10:42;;;;;;;9.10;6.32;;;17.30;93.20;;;;;;5071957;28;20343;-49
2022/08/01 01:13:14;;;;;;;8.35;5.90;;;17.20;93.10;;;;;;5071919;28;20024;-49
2022/08/01 01:15:48;;;;;;;10.73;5.70;;;17.30;93.10;;;;;;5070620;28;20028;-50
2022/08/01 01:18:17;;;;;;;9.70;5.75;;;17.20;93.00;;;;;;5070634;28;20342;-50
2022/08/01 01:20:51;;;;;;;8.13;5.47;;;17.20;93.00;;;;;;5070587;28;20469;-51
2022/08/01 01:23:51;;;;;;;8.93;4.60;;;17.20;92.90;;;;;;5071617;28;20085;-50
2022/08/01 01:26:42;;;;;;;11.55;5.03;;;17.20;92.90;;;;;;5065706;28;20047;-48
2022/08/01 01:29:08;;;;;;;7.85;5.25;;;17.20;92.90;;;;;;5071482;28;20032;-48
2022/08/01 01:31:43;;;;;;;6.55;4.25;;;17.20;92.80;;;;;;5071573;28;20036;-48
2022/08/01 01:34:13;;;;;;;6.38;4.18;;;17.20;92.80;;;;;;5071516;28;20044;-49
2022/08/01 01:36:39;;;;;;;6.30;3.95;;;17.20;92.70;;;;;;5071534;28;20036;-49
2022/08/01 01:39:08;;;;;;;10.00;3.80;;;17.20;92.70;;;;;;5069594;28;20035;-48
2022/08/01 01:41:37;;;;;;;8.38;4.38;;;17.10;92.70;;;;;;5077164;28;20082;-48
2022/08/01 01:44:05;;;;;;;7.77;4.23;;;17.10;92.70;;;;;;5073553;28;20067;-48
2022/08/01 01:46:31;;;;;;;8.35;4.53;;;17.10;92.70;;;;;;5073613;28;20020;-48
2022/08/01 01:48:58;;;;;;;9.88;5.18;;;17.20;92.80;;;;;;5073297;28;20020;-48
2022/08/01 01:51:27;;;;;;;10.30;5.72;;;17.20;92.80;;;;;;5091389;28;20048;-54
2022/08/01 01:53:56;;;;;;;11.32;6.60;;;17.20;92.80;;;;;;5056886;28;20026;-50
2022/08/01 01:56:22;;;;;;;9.40;6.25;;;17.20;92.90;;;;;;5090117;28;20123;-50
2022/08/01 01:59:01;;;;;;;14.15;4.90;;;17.20;93.00;;;;;;5073380;28;20036;-54
2022/08/01 02:01:31;;;;;;;12.30;3.78;;;17.10;93.10;;;;;;5073067;28;20027;-53
2022/08/01 02:03:58;;;;;;;11.65;4.55;;;17.10;93.20;;;;;;5090474;28;20165;-52
2022/08/01 02:06:29;;;;;;;9.38;4.32;;;17.10;93.40;;;;;;5090809;28;20486;-56
2022/08/01 02:08:55;;;;;;;11.45;3.90;;;17.00;93.30;;;;;;5073101;28;20448;-52
2022/08/01 02:11:25;;;;;;;15.40;4.13;;;17.00;93.40;;;;;;5072862;28;20024;-50
2022/08/01 02:13:55;;;;;;;;;;;16.90;93.40;;;;;;5091430;28;20032;-49
2022/08/01 02:16:24;;;;;;;9.57;4.75;;;16.90;93.50;;;;;;5090675;28;19915;-51
2022/08/01 02:18:50;;;;;;;13.63;4.63;;;16.90;93.50;;;;;;5090739;28;20032;-49
2022/08/01 02:21:23;;;;;;;16.92;5.55;;;16.90;93.50;;;;;;5072841;28;20027;-52
2022/08/01 02:23:50;;;;;;;13.43;3.92;;;16.80;93.60;;;;;;5090687;28;20111;-54
2022/08/01 02:26:18;;;;;;;11.07;3.65;;;16.80;93.60;;;;;;5072655;28;20481;-48
2022/08/01 02:28:52;;;;;;;8.77;3.30;;;16.70;93.50;;;;;;5072674;28;20032;-48
2022/08/01 02:31:24;;;;;;;13.25;3.60;;;16.70;93.40;;;;;;5072628;28;20016;-50
2022/08/01 02:34:05;;;;;;;11.75;3.47;;;16.70;93.40;;;;;;5090688;28;20019;-54
2022/08/01 02:36:35;;;;;;;16.77;4.63;;;16.70;93.40;;;;;;5090388;28;20047;-51
2022/08/01 02:39:07;;;;;;;15.43;4.18;;;16.70;93.30;;;;;;5090246;28;20043;-48
2022/08/01 02:41:38;;;;;;;23.17;4.43;;;16.60;93.40;;;;;;5089858;28;20058;-50
2022/08/01 02:44:09;;;;;;;12.32;4.18;;;16.60;93.40;;;;;;5072147;28;20032;-48
2022/08/01 02:46:43;;;;;;;15.75;5.38;;;16.60;93.30;;;;;;5089518;28;20107;-48
2022/08/01 02:49:13;;;;;;;13.02;4.60;;;16.60;93.30;;;;;;5089848;28;20352;-48
2022/08/01 02:51:40;;;;;;;15.23;5.00;;;16.60;93.30;;;;;;5089453;28;20020;-50
2022/08/01 02:54:09;;;;;;;15.43;3.88;;;16.60;93.20;;;;;;5089689;28;20476;-50
2022/08/01 02:56:35;;;;;;;7.67;3.83;;;16.60;93.20;;;;;;5090255;28;20028;-48
2022/08/01 02:59:08;;;;;;;14.80;5.70;;;16.60;93.20;;;;;;5071987;28;20043;-50
2022/08/01 03:01:36;;;;;;;13.30;6.43;;;16.50;93.20;;;;;;5090368;28;20414;-49
2022/08/01 03:04:06;;;;;;;12.80;4.88;;;16.50;93.10;;;;;;5090002;28;20372;-48
2022/08/01 03:06:33;;;;;;;20.08;4.97;;;16.50;93.20;;;;;;5089410;28;20119;-47
2022/08/01 03:09:02;;;;;;;11.52;4.88;;;16.50;93.00;;;;;;5089661;28;20295;-48
2022/08/01 03:11:30;;;;;;;26.10;6.13;;;16.40;93.00;;;;;;5089946;28;20091;-47
2022/08/01 03:13:58;;;;;;;13.32;5.07;;;16.40;93.00;;;;;;5071919;28;20035;-50
2022/08/01 03:16:26;;;;;;;17.90;6.13;;;16.40;92.90;;;;;;5089903;28;20093;-48
2022/08/01 03:18:56;;;;;;;22.98;6.47;;;16.30;92.80;;;;;;5089668;28;20050;-49
2022/08/01 03:21:24;;;;;;;18.70;6.47;;;16.30;92.90;;;;;;5089591;28;20282;-48
2022/08/01 03:23:56;;;;;;;20.25;5.82;;;16.30;92.90;;;;;;5089858;28;20391;-50
2022/08/01 03:26:27;;;;;;;16.88;6.85;;;16.30;93.00;;;;;;5089446;28;20020;-47
2022/08/01 03:28:56;;;;;;;17.02;7.15;;;16.20;93.00;;;;;;5071704;28;20024;-53
2022/08/01 03:31:23;;;;;;;20.95;6.30;;;16.20;92.90;;;;;;5071873;28;20024;-49
2022/08/01 03:33:48;;;;;;;17.85;6.03;;;16.20;92.80;;;;;;5089601;28;20028;-50
2022/08/01 03:36:16;;;;;;;23.80;5.72;;;16.20;92.80;;;;;;5089726;28;20448;-48
2022/08/01 03:38:43;;;;;;;11.30;4.82;;;16.10;92.70;;;;;;5071733;28;20507;-48
2022/08/01 03:41:21;;;;;;;16.25;5.35;;;16.10;92.70;;;;;;5089435;28;20365;-47
2022/08/01 03:43:57;;;;;;;14.25;5.30;;;16.00;92.50;;;;;;5089121;28;20097;-49
2022/08/01 03:46:32;;;;;;;21.02;6.40;;;16.00;92.40;;;;;;5088983;28;20515;-48
2022/08/01 03:49:03;;;;;;;15.07;4.90;;;15.90;92.40;;;;;;5088769;28;20060;-47
2022/08/01 03:51:30;;;;;;;23.15;5.28;;;15.90;92.20;;;;;;5070799;28;20074;-49
2022/08/01 03:54:00;;;;;;;13.35;4.55;;;15.90;92.20;;;;;;5070920;28;20073;-47
2022/08/01 03:56:26;;;;;;;;;;;15.90;92.10;;;;;;5088899;28;20091;-49
2022/08/01 03:58:52;;;;;;;14.70;4.93;;;15.90;92.00;;;;;;5070746;28;20002;-46
2022/08/01 04:01:18;;;;;;;17.80;4.78;;;15.90;92.00;;;;;;5088368;28;20112;-46
2022/08/01 04:03:45;;;;;;;19.85;4.95;;;15.90;92.00;;;;;;5054189;28;20037;-47
2022/08/01 04:06:13;;;;;;;17.25;5.03;;;15.90;91.90;;;;;;5071308;28;20384;-48
2022/08/01 04:08:40;;;;;;;21.95;6.32;;;15.80;91.60;;;;;;5089488;28;20017;-50
2022/08/01 04:11:08;;;;;;;14.15;5.82;;;15.80;91.60;;;;;;5089288;28;20021;-48
2022/08/01 04:13:34;;;;;;;22.23;6.28;;;15.80;91.50;;;;;;5071438;28;20115;-46
2022/08/01 04:16:00;;;;;;;20.92;6.07;;;15.80;91.20;;;;;;5089148;28;20106;-46
2022/08/01 04:18:26;;;;;;;17.38;5.80;;;15.70;91.20;;;;;;5089622;28;20028;-49
2022/08/01 04:20:51;;;;;;;18.40;5.97;;;15.80;91.20;;;;;;5092932;28;20443;-47
2022/08/01 04:23:25;;;;;;;16.35;5.95;;;15.80;91.20;;;;;;5093156;28;20043;-47
2022/08/01 04:25:52;;;;;;;14.90;5.00;;;15.80;91.00;;;;;;5092965;28;20469;-46
2022/08/01 04:28:21;;;;;;;16.85;5.93;;;15.80;90.80;;;;;;5092915;28;20425;-47
2022/08/01 04:30:51;;;;;;;19.17;6.10;;;15.70;90.60;;;;;;5092829;28;20016;-45
2022/08/01 04:33:21;;;;;;;20.58;6.00;;;15.70;90.40;;;;;;5075014;28;20024;-45
2022/08/01 04:35:49;;;;;;;22.65;7.43;;;15.70;90.30;;;;;;5092907;28;20028;-49
2022/08/01 04:38:22;;;;;;;16.23;5.25;;;15.70;90.20;;;;;;5092650;28;20103;-48
2022/08/01 04:40:52;;;;;;;19.65;5.80;;;15.70;90.10;;;;;;5092391;28;20035;-45
2022/08/01 04:43:18;;;;;;;23.35;5.38;;;15.60;89.80;;;;;;5092837;28;20149;-46
2022/08/01 04:45:48;;;;;;;18.70;5.45;;;15.60;89.50;;;;;;5074489;28;20116;-43
2022/08/01 04:48:16;;;;;;;;;;;15.60;89.40;;;;;;5093012;28;20031;-45
2022/08/01 04:50:42;;;;;;;15.95;5.00;;;15.60;89.30;;;;;;5092465;28;19904;-48
2022/08/01 04:53:18;;;;;;;18.50;5.32;;;15.50;89.20;;;;;;5092504;28;20024;-45
2022/08/01 04:55:45;;;;;;;19.15;5.03;;;15.40;89.10;;;;;;5074192;28;20024;-46
2022/08/01 04:58:12;;;;;;;17.98;6.22;;;15.50;89.20;;;;;;5092084;28;20015;-45
2022/08/01 05:00:37;;;;;;;19.10;5.10;;;15.60;89.40;;;;;;5091878;28;20027;-45
2022/08/01 05:03:03;;;;;;;18.52;5.47;;;15.60;89.50;;;;;;5092048;28;20091;-44
2022/08/01 05:05:31;;;;;;;20.65;5.78;;;15.60;89.50;;;;;;5074064;28;20038;-44
2022/08/01 05:08:00;;;;;;;23.77;6.95;;;15.60;89.20;;;;;;5091960;28;20032;-44
2022/08/01 05:10:26;;;;;;;20.80;5.43;;;15.50;89.40;;;;;;5091993;28;20020;-44
2022/08/01 05:12:52;;;;;;;26.95;6.15;;;15.60;89.50;;;;;;5092079;28;20024;-43
2022/08/01 05:15:18;;;;;;;20.73;5.32;;;15.50;89.10;;;;;;5091836;28;20110;-44
2022/08/01 05:17:43;;;;;;;17.42;4.55;;;15.60;89.30;;;;;;5092186;28;20047;-45
2022/08/01 05:20:11;;;;;;;19.13;5.18;;;15.60;89.40;;;;;;5073819;28;20043;-44
2022/08/01 05:22:37;;;;;;;15.27;4.60;;;15.60;89.10;;;;;;5074117;28;20445;-43
2022/08/01 05:25:04;;;;;;;13.73;4.35;;;15.60;88.90;;;;;;5091752;28;20039;-45
2022/08/01 05:27:30;;;;;;;20.25;5.53;;;15.60;88.80;;;;;;5091932;28;20082;-43
2022/08/01 05:29:58;;;;;;;27.50;5.30;;;15.60;88.60;;;;;;5091568;28;20447;-44
2022/08/01 05:32:29;;;;;;;22.20;5.40;;;15.50;88.30;;;;;;5091729;28;20020;-45
2022/08/01 05:34:54;;;;;;;20.48;5.05;;;15.50;88.30;;;;;;5091490;28;20127;-45
2022/08/01 05:37:20;;;;;;;15.48;5.32;;;15.50;88.10;;;;;;5091088;28;20163;-44
2022/08/01 05:39:46;;;;;;;26.27;6.53;;;15.50;87.60;;;;;;5090721;28;20123;-45
2022/08/01 05:42:14;;;;;;;20.77;5.10;;;15.60;88.00;;;;;;5090599;28;20130;-44
2022/08/01 05:44:39;;;;;;;12.77;4.97;;;15.60;87.70;;;;;;5072951;28;20380;-44
2022/08/01 05:47:07;;;;;;;19.02;5.03;;;15.70;87.90;;;;;;5091109;28;20034;-44
2022/08/01 05:49:36;;;;;;;20.33;4.90;;;15.80;88.00;;;;;;5074395;28;20016;-43
2022/08/01 05:52:02;;;;;;;17.98;4.90;;;15.90;88.00;;;;;;5091206;28;20016;-45
2022/08/01 05:54:28;;;;;;;20.80;5.40;;;16.00;88.00;;;;;;5091256;28;20103;-45
2022/08/01 05:56:55;;;;;;;18.13;4.22;;;16.20;88.00;;;;;;5091108;28;20141;-45
2022/08/01 05:59:20;;;;;;;22.30;5.60;;;16.20;87.10;;;;;;5091135;28;20024;-44
2022/08/01 06:01:46;;;;;;;23.05;5.47;;;16.40;86.80;;;;;;5073634;28;20365;-44
2022/08/01 06:04:12;;;;;;;20.40;5.15;;;16.40;86.80;;;;;;5073276;28;20042;-45
2022/08/01 06:06:37;;;;;;;14.02;3.08;;;16.40;85.90;;;;;;5090847;28;20039;-44
2022/08/01 06:09:03;;;;;;;18.67;5.97;;;16.50;85.10;;;;;;5073261;28;20040;-44
2022/08/01 06:11:29;;;;;;;18.23;4.15;;;16.60;85.40;;;;;;5090929;28;20553;-45
2022/08/01 06:13:54;;;;;;;21.88;4.28;;;16.70;84.50;;;;;;5073175;28;20020;-43
2022/08/01 06:16:20;;;;;;;17.05;4.72;;;16.80;85.10;;;;;;5090857;28;20063;-48
2022/08/01 06:18:46;;;;;;;13.25;3.85;;;16.80;84.90;;;;;;5090803;28;20028;-43
2022/08/01 06:21:11;;;;;;;13.32;3.35;;;16.80;84.30;;;;;;5090637;28;20038;-45
2022/08/01 06:23:37;;;;;;;20.17;4.22;;;16.80;83.70;;;;;;5090761;28;20036;-43
2022/08/01 06:26:03;;;;;;;12.25;3.88;;;16.80;83.90;;;;;;5090630;28;20099;-46
2022/08/01 06:28:29;;;;;;;18.35;4.25;;;16.80;84.60;;;;;;5090477;28;20464;-45
2022/08/01 06:30:54;;;;;;;17.55;5.95;;;16.80;84.20;;;;;;5090483;28;20095;-44
2022/08/01 06:33:24;;;;;;;19.75;5.40;;;16.90;84.20;;;;;;5090608;28;20732;-44
2022/08/01 06:35:50;;;;;;;17.70;3.22;;;16.90;85.00;;;;;;5072639;28;20041;-43
2022/08/01 06:38:16;;;;;;;19.05;4.75;;;16.90;83.60;;;;;;5090272;28;20034;-44
2022/08/01 06:40:41;;;;;;;18.42;3.45;;;17.00;83.50;;;;;;5090094;28;20024;-45
2022/08/01 06:43:07;;;;;;;15.05;3.75;;;17.10;83.50;;;;;;5089904;28;20063;-45
2022/08/01 06:45:33;;;;;;;16.00;3.53;;;17.20;82.30;;;;;;5072345;28;20023;-45
2022/08/01 06:47:58;;;;;;;15.82;3.13;;;17.20;82.20;;;;;;5090226;28;20394;-46
2022/08/01 06:50:24;;;;;;;12.80;3.22;;;17.30;81.70;;;;;;5072275;28;20338;-46
2022/08/01 06:52:50;;;;;;;15.80;4.60;;;17.30;81.60;;;;;;5089970;28;20028;-45
2022/08/01 06:55:16;;;;;;;19.40;4.07;;;17.40;80.20;;;;;;5090026;28;20020;-45
2022/08/01 06:57:49;;;;;;;15.13;3.35;;;17.30;79.80;;;;;;5089943;28;20117;-44
2022/08/01 07:00:18;;;;;;;14.75;3.55;;;17.30;80.60;;;;;;5090079;28;20116;-46
2022/08/01 07:02:45;;;;;;;14.13;3.88;;;17.20;80.50;;;;;;5090085;28;20459;-45
2022/08/01 07:05:10;;;;;;;10.93;2.92;;;17.20;80.40;;;;;;5089781;28;20038;-46
2022/08/01 07:07:37;;;;;;;16.13;3.47;;;17.30;80.70;;;;;;5090160;28;20028;-45
2022/08/01 07:10:03;;;;;;;20.05;3.20;;;17.60;81.80;;;;;;5071995;28;20031;-45
2022/08/01 07:12:29;;;;;;;16.13;2.90;;;17.70;79.60;;;;;;5090232;28;20111;-44
2022/08/01 07:14:56;;;;;;;14.38;3.67;;;17.50;76.80;;;;;;5071996;28;20503;-46
2022/08/01 07:17:22;;;;;;;11.63;3.65;;;17.40;78.90;;;;;;5071891;28;20112;-44
2022/08/01 07:19:50;;;;;;;11.18;2.80;;;17.40;78.20;;;;;;5089695;28;20074;-45
2022/08/01 07:22:16;;;;;;;13.25;3.88;;;17.50;77.00;;;;;;5089718;28;20024;-44
2022/08/01 07:24:42;;;;;;;15.35;3.05;;;17.60;77.60;;;;;;5089854;28;20338;-45
2022/08/01 07:27:08;;;;;;;12.38;2.67;;;17.70;76.70;;;;;;5089268;28;20088;-46
2022/08/01 07:29:33;;;;;;;15.52;3.88;;;17.90;76.10;;;;;;5071315;28;20020;-47
2022/08/01 07:31:59;;;;;;;14.32;4.43;;;17.90;76.10;;;;;;5089358;28;20028;-48
2022/08/01 07:34:25;;;;;;;13.35;3.25;;;18.00;76.10;;;;;;5089614;28;20038;-46
2022/08/01 07:36:52;;;;;;;14.10;3.65;;;18.00;77.60;;;;;;5089446;28;20020;-46
2022/08/01 07:39:17;;;;;;;12.63;2.78;;;17.90;75.60;;;;;;5089410;28;20115;-46
2022/08/01 07:41:43;;;;;;;13.60;3.40;;;17.40;77.40;;;;;;5089124;28;20123;-47
2022/08/01 07:44:09;;;;;;;12.00;2.83;;;17.40;78.20;;;;;;5071885;28;20570;-46
2022/08/01 07:46:34;;;;;;;12.82;2.95;;;17.80;76.70;;;;;;5089311;28;20032;-46
2022/08/01 07:49:00;;;;;;;11.50;2.53;;;18.30;74.90;;;;;;5089484;28;20048;-46
2022/08/01 07:51:26;;;;;;;15.77;3.72;;;18.40;73.80;;;;;;5089405;28;20043;-44
2022/08/01 07:53:51;;;;;;;9.07;2.33;;;18.40;73.70;;;;;;5090616;28;20016;-46
2022/08/01 07:56:17;;;;;;;10.80;3.78;;;18.00;72.60;;;;;;5093419;28;20055;-45
2022/08/01 07:58:43;;;;;;;13.68;3.65;;;18.10;73.70;;;;;;5093391;28;20703;-47
2022/08/01 08:01:08;;;;;;;14.77;3.28;;;18.50;73.20;;;;;;5075522;28;20023;-46
2022/08/01 08:03:36;;;;;;;11.65;3.20;;;18.80;72.10;;;;;;5093502;28;20031;-47
2022/08/01 08:06:02;;;;;;;14.43;3.75;;;18.90;71.90;;;;;;5075147;28;20055;-45
2022/08/01 08:08:27;;;;;;;18.73;3.25;;;18.70;72.40;;;;;;5075518;28;20427;-45
2022/08/01 08:10:53;;;;;;;10.95;2.85;;;18.30;73.80;;;;;;5075079;28;20134;-46
2022/08/01 08:13:19;;;;;;;11.13;2.67;;;18.40;72.30;;;;;;5093308;28;20038;-46
2022/08/01 08:15:44;;;;;;;17.13;3.55;;;18.90;71.70;;;;;;5093000;28;20441;-47
2022/08/01 08:18:12;;;;;;;10.95;2.90;;;19.40;70.50;;;;;;5075273;28;20074;-48
2022/08/01 08:20:38;;;;;;;10.77;2.60;;;19.80;67.20;;;;;;5093013;28;20016;-46
2022/08/01 08:24:19;;;;;;;15.40;2.63;;;19.90;67.00;;;;;;5075164;28;20107;-47
2022/08/01 08:25:51;;;;;;;15.90;2.72;;;19.40;67.70;;;;;;5092848;28;20506;-46
2022/08/01 08:28:17;;;;;;;12.70;4.13;;;19.10;69.30;;;;;;5092888;28;20039;-45
2022/08/01 08:30:43;;;;;;;11.30;2.90;;;18.90;68.70;;;;;;5074925;28;20024;-46
2022/08/01 08:33:08;;;;;;;11.65;2.40;;;18.50;70.40;;;;;;5092883;28;20020;-46
2022/08/01 08:35:34;;;;;;;13.05;3.13;;;18.40;70.70;;;;;;5075138;28;20027;-47
2022/08/01 08:37:59;;;;;;;8.23;2.42;;;18.40;70.40;;;;;;5074874;28;20024;-48
2022/08/01 08:40:30;;;;;;;11.10;3.25;;;18.40;70.10;;;;;;5092362;28;20103;-46
2022/08/01 08:42:57;;;;;;;10.23;2.45;;;18.90;68.50;;;;;;5092270;28;20051;-46
2022/08/01 08:45:23;;;;;;;13.02;2.50;;;19.00;68.40;;;;;;5074814;28;20085;-51
2022/08/01 08:47:50;;;;;;;10.88;4.45;;;19.50;66.70;;;;;;5092582;28;20040;-47
2022/08/01 08:50:19;;;;;;;13.57;3.22;;;20.00;66.10;;;;;;5092549;28;20027;-46
2022/08/01 08:52:48;;;;;;;8.25;2.00;;;20.10;66.90;;;;;;5092221;28;20030;-46
2022/08/01 08:55:16;;;;;;;21.00;13.13;;;20.10;64.70;;;;;;5092311;28;20016;-47
2022/08/01 08:57:44;;;;;;;12.55;3.47;;;20.20;65.40;;;;;;5092507;28;20042;-46
2022/08/01 09:00:11;;;;;;;10.38;2.38;;;20.60;63.90;;;;;;5092577;28;20367;-48
2022/08/01 09:02:44;;;;;;;11.07;2.20;;;21.10;62.50;;;;;;5074263;28;20034;-47
2022/08/01 09:05:11;;;;;;;10.02;2.53;;;21.40;58.90;;;;;;5091123;28;20356;-47
2022/08/01 09:07:37;;;;;;;6.65;2.15;;;21.40;61.80;;;;;;5091614;28;20020;-48
2022/08/01 09:10:04;;;;;;;10.20;2.13;;;21.00;61.40;;;;;;5091667;28;20035;-47
2022/08/01 09:12:30;;;;;;;6.15;2.58;;;20.60;60.20;;;;;;5091532;28;20353;-46
2022/08/01 09:14:55;;;;;;;9.32;2.00;;;20.30;61.80;;;;;;5091666;28;20035;-47
2022/08/01 09:17:22;;;;;;;12.45;2.58;;;20.20;62.20;;;;;;5091468;28;20453;-48
2022/08/01 09:19:54;;;;;;;11.85;2.45;;;19.60;65.60;;;;;;5091307;28;20028;-49
2022/08/01 09:22:24;;;;;;;13.63;2.72;;;19.60;66.30;;;;;;5072942;28;20032;-46
2022/08/01 09:25:00;;;;;;;16.92;2.97;;;19.20;67.40;;;;;;5091218;28;20024;-47
2022/08/01 09:27:26;;;;;;;12.35;2.60;;;19.60;66.30;;;;;;5091292;28;20062;-46
2022/08/01 09:29:53;;;;;;;13.45;3.35;;;20.00;65.30;;;;;;5090974;28;20110;-47
2022/08/01 09:32:20;;;;;;;10.05;2.22;;;19.80;64.40;;;;;;5073715;28;20031;-46
2022/08/01 09:34:46;;;;;;;9.05;2.10;;;20.30;61.90;;;;;;5091773;28;20099;-47
2022/08/01 09:37:17;;;;;;;8.48;2.97;;;20.60;60.40;;;;;;5091678;28;20028;-47
2022/08/01 09:39:43;;;;;;;8.20;2.35;;;20.70;60.90;;;;;;5091643;28;20072;-46
2022/08/01 09:42:23;;;;;;;8.88;2.67;;;20.60;61.30;;;;;;5091109;28;20104;-47
2022/08/01 09:44:49;;;;;;;8.27;2.13;;;21.00;62.10;;;;;;5091824;28;20504;-46
2022/08/01 09:47:16;;;;;;;9.60;2.72;;;21.10;61.30;;;;;;5091397;28;20055;-46
2022/08/01 09:49:55;;;;;;;6.35;1.98;;;20.70;60.00;;;;;;5073583;28;20120;-50
2022/08/01 09:52:24;;;;;;;12.95;2.63;;;20.70;60.00;;;;;;5091242;28;20024;-48
2022/08/01 09:55:03;;;;;;;8.45;1.88;;;21.00;61.50;;;;;;5090573;28;20471;-46
2022/08/01 09:57:32;;;;;;;8.57;2.22;;;21.10;57.50;;;;;;5091393;28;20028;-46
2022/08/01 10:00:01;;;;;;;7.28;1.98;;;20.60;59.50;;;;;;5091229;28;20357;-46
2022/08/01 10:02:36;;;;;;;9.55;2.28;;;20.40;60.70;;;;;;5090874;28;20024;-48
2022/08/01 10:05:07;;;;;;;9.50;2.17;;;20.90;61.80;;;;;;5091018;28;20034;-50
2022/08/01 10:07:34;;;;;;;9.95;2.08;;;21.30;60.30;;;;;;5073231;28;20032;-46
2022/08/01 10:10:30;;;;;;;7.85;2.50;;;21.10;60.40;;;;;;5091103;28;20040;-49
2022/08/01 10:12:57;;;;;;;14.48;2.78;;;20.10;60.30;;;;;;5074357;28;20028;-47
2022/08/01 10:15:25;;;;;;;8.60;2.40;;;20.30;61.20;;;;;;5073175;28;20016;-46
2022/08/01 10:18:01;;;;;;;7.47;2.05;;;20.90;59.60;;;;;;5072273;28;20024;-46
2022/08/01 10:20:30;;;;;;;9.13;2.40;;;21.40;59.50;;;;;;5090799;28;20436;-48
2022/08/01 10:23:02;;;;;;;8.98;1.98;;;21.20;58.40;;;;;;5072974;28;20364;-50
2022/08/01 10:25:36;;;;;;;11.48;2.25;;;21.20;58.70;;;;;;5090879;28;20032;-46
2022/08/01 10:28:11;;;;;;;7.75;2.05;;;21.30;57.90;;;;;;5072893;28;20429;-47
2022/08/01 10:30:40;;;;;;;11.35;2.55;;;21.10;57.00;;;;;;5090602;28;20036;-47
2022/08/01 10:33:05;;;;;;;9.02;2.25;;;21.10;59.10;;;;;;5090419;28;20024;-49
2022/08/01 10:35:32;;;;;;;7.60;2.00;;;21.30;58.30;;;;;;5090692;28;20108;-49
2022/08/01 10:37:58;;;;;;;11.73;2.15;;;21.20;56.80;;;;;;5090441;28;20023;-47
2022/08/01 10:40:24;;;;;;;5.82;1.58;;;21.30;57.30;;;;;;5072406;28;20031;-48
2022/08/01 10:42:51;;;;;;;9.32;1.52;;;21.50;58.70;;;;;;5090028;28;20048;-50
2022/08/01 10:45:17;;;;;;;8.07;1.83;;;21.10;57.00;;;;;;5090571;28;20027;-47
2022/08/01 10:48:14;;;;;;;9.55;1.98;;;21.20;56.50;;;;;;5072394;28;20035;-46
2022/08/01 10:50:51;;;;;;;7.40;2.35;;;21.50;56.80;;;;;;5090385;28;20372;-46
2022/08/01 10:53:19;;;;;;;12.23;2.10;;;20.60;57.70;;;;;;5090041;28;20449;-49
2022/08/01 10:55:56;;;;;;;10.18;2.20;;;20.50;57.90;;;;;;5090297;28;20023;-48
2022/08/01 10:58:26;;;;;;;4.05;1.45;;;19.90;58.60;;;;;;5072138;28;20035;-46
2022/08/01 11:01:18;;;;;;;12.50;3.35;;;19.70;59.50;;;;;;5090150;28;20020;-48
2022/08/01 11:04:00;;;;;;;12.70;2.90;;;19.90;60.40;;;;;;5061479;28;20110;-47
2022/08/01 11:06:53;;;;;;;9.15;1.73;;;19.70;60.90;;;;;;5071788;28;20043;-46
2022/08/01 11:09:37;;;;;;;11.15;2.65;;;19.90;60.50;;;;;;5090005;28;20028;-46
2022/08/01 11:12:07;;;;;;;7.18;2.35;;;19.80;59.90;;;;;;5089855;28;20060;-51
2022/08/01 11:14:34;;;;;;;8.70;2.17;;;20.30;58.20;;;;;;5089784;28;20324;-46
2022/08/01 11:17:36;;;;;;;7.25;2.25;;;20.40;58.30;;;;;;5089561;28;20055;-46
2022/08/01 11:20:07;;;;;;;10.20;1.90;;;20.80;59.50;;;;;;5007442;28;20129;-48
2022/08/01 11:23:05;;;;;;;8.07;2.90;;;20.90;56.60;;;;;;4990907;28;20041;-46
2022/08/01 11:25:37;;;;;;;7.22;1.80;;;20.80;55.40;;;;;;4990636;28;20022;-47
2022/08/01 11:28:17;;;;;;;11.57;2.45;;;21.00;56.80;;;;;;5006894;28;20052;-47
2022/08/01 11:30:46;;;;;;;6.55;1.80;;;21.30;56.50;;;;;;5007417;28;20455;-47
2022/08/01 11:33:13;;;;;;;13.38;2.50;;;21.40;55.00;;;;;;4991261;28;20030;-47
2022/08/01 11:36:17;;;;;;;13.18;3.35;;;21.20;55.00;;;;;;5007851;28;20036;-50
2022/08/01 11:38:48;;;;;;;10.18;2.15;;;21.00;53.10;;;;;;5007620;28;20030;-48
2022/08/01 11:41:19;;;;;;;10.00;2.55;;;20.90;54.30;;;;;;4987973;28;20042;-48
2022/08/01 11:44:03;;;;;;;6.97;2.30;;;20.90;55.20;;;;;;4988022;28;20030;-46
2022/08/01 11:46:48;;;;;;;8.88;1.60;;;20.70;54.30;;;;;;4971712;28;20026;-48
2022/08/01 11:49:35;;;;;;;8.77;2.00;;;20.80;53.80;;;;;;4988090;28;20109;-51
2022/08/01 11:52:01;;;;;;;10.13;2.25;;;20.70;56.70;;;;;;4988129;28;20027;-50
2022/08/01 11:54:29;;;;;;;9.45;2.13;;;20.30;58.50;;;;;;5030038;28;20339;-47
2022/08/01 11:56:56;;;;;;;9.10;2.22;;;20.30;57.70;;;;;;5049122;28;20036;-49
2022/08/01 11:59:24;;;;;;;10.10;2.38;;;19.90;58.80;;;;;;5049190;28;20037;-46
2022/08/01 12:01:50;;;;;;;7.13;2.65;;;20.00;60.00;;;;;;5048986;28;20036;-49
2022/08/01 12:04:18;;;;;;;5.70;2.10;;;20.00;57.60;;;;;;5048917;28;20075;-47
2022/08/01 12:06:44;;;;;;;14.18;2.33;;;20.30;55.90;;;;;;5047819;28;20108;-47
2022/08/01 12:09:21;;;;;;;6.40;2.03;;;20.40;57.20;;;;;;5049089;28;20132;-46
2022/08/01 12:11:49;;;;;;;8.23;2.08;;;20.80;53.60;;;;;;5049232;28;20048;-48
2022/08/01 12:14:20;;;;;;;8.32;1.90;;;20.40;55.30;;;;;;5049013;28;20346;-50
2022/08/01 12:16:53;;;;;;;6.40;1.77;;;20.10;54.30;;;;;;5048009;28;20027;-49
2022/08/01 12:19:24;;;;;;;6.43;1.85;;;19.90;54.10;;;;;;5047970;28;20525;-51
2022/08/01 12:22:13;;;;;;;7.03;2.13;;;19.90;55.20;;;;;;5049013;28;20256;-49
2022/08/01 12:24:41;;;;;;;9.48;2.35;;;20.00;54.70;;;;;;5048879;28;20359;-51
2022/08/01 12:27:07;;;;;;;6.20;2.30;;;20.30;56.90;;;;;;5048835;28;20323;-47
2022/08/01 12:29:43;;;;;;;9.45;2.03;;;20.20;56.20;;;;;;5049046;28;20027;-46
2022/08/01 12:32:26;;;;;;;7.50;2.72;;;20.40;54.70;;;;;;5048772;28;20026;-46
2022/08/01 12:34:54;;;;;;;5.38;2.30;;;20.50;56.50;;;;;;5048751;28;20410;-48
2022/08/01 12:37:20;;;;;;;11.70;2.10;;;20.10;54.40;;;;;;5048742;28;20111;-46
2022/08/01 12:39:47;;;;;;;9.02;2.47;;;20.00;56.30;;;;;;5049908;28;20078;-46
2022/08/01 12:42:14;;;;;;;9.23;2.03;;;20.30;55.80;;;;;;5062814;28;20048;-48
2022/08/01 12:44:42;;;;;;;7.35;2.05;;;19.90;53.50;;;;;;5071518;28;20111;-46
2022/08/01 12:47:09;;;;;;;7.55;2.03;;;20.00;54.20;;;;;;5071277;28;20082;-46
2022/08/01 12:49:39;;;;;;;9.55;2.20;;;20.10;55.10;;;;;;5072431;28;20027;-48
2022/08/01 12:52:05;;;;;;;7.13;2.13;;;20.40;56.40;;;;;;5071147;28;20495;-47